PPM weather

Pompano Beach Airpark
Pompano Beach, Florida, United States

Public forecast

Using degrees Fahrenheit for public forecast. Weather courtesy of forecast.io.

Current aviation weather report (METAR) for Pompano Beach Airpark

Retrieved 2020/04/07 16:01 UTC (47 minutes ago):

KPMP 071601Z 11007KT 10SM SCT020 BKN040 26/22 A3010 RMK AO2 RAE1555 P0000 T02560222

Aviation forecast (TAF) for Pompano Beach Airpark

Forecast is more than 12 hours old.

Retrieved 2020/02/03 18:20 UTC (2 months ago):

TAF KPMP 031720Z 0318/0418 13007KT P6SM SKC FM040000 VRB03KT P6SM SKC FM041400 15011KT P6SM FEW030